KSMO

Santa Monica Municipal Airport

Santa Monica, California, USA
METAR KSMO 150051Z 23008KT 10SM CLR 23/16 A2984 RMK AO2 SLP101 T02330156
Observed Flight Rules
Aug-15 @ 00:51 UTC (16 minutes ago) Visual Flight Rules
Wind Visibility Clouds
230° at 8 knots 10 miles
  • Clear skies
Temperatures Readings
Current 23°C / 73°F
Dewpoint 16°C / 61°F
Humidity 65%
Altimeter 29.84" Hg
Pressure 1010.1 hPa
Elevation 57
METAR KSMO 150051Z 23008KT 10SM CLR 23/16 A2984 RMK AO2 SLP101 T02330156
Observed Flight Rules
Aug-15 @ 00:51 UTC
(16 minutes ago)
VFR
Wind Visibility
230° at 8 knots 10 miles
Clouds
  • Clear skies
Temperature Dewpoint
23°C / 73°F 16°C / 61°F
Humidity Altimeter Pressure
65% 29.84" Hg 1010.1 hPa